sensor_id;sensor_type;location;lat;lon;timestamp;P1;durP1;ratioP1;P2;durP2;ratioP2
72273;SDS011;60208;48.692;8.948;2022-08-14T00:00:08;8.93;;;7.03;;
72273;SDS011;60208;48.692;8.948;2022-08-14T00:02:36;9.45;;;7.30;;
72273;SDS011;60208;48.692;8.948;2022-08-14T00:05:01;8.50;;;6.38;;
72273;SDS011;60208;48.692;8.948;2022-08-14T00:07:27;6.43;;;5.63;;
72273;SDS011;60208;48.692;8.948;2022-08-14T00:09:53;11.77;;;6.57;;
72273;SDS011;60208;48.692;8.948;2022-08-14T00:12:19;8.52;;;5.90;;
72273;SDS011;60208;48.692;8.948;2022-08-14T00:14:44;6.97;;;5.95;;
72273;SDS011;60208;48.692;8.948;2022-08-14T00:17:10;7.43;;;5.90;;
72273;SDS011;60208;48.692;8.948;2022-08-14T00:19:35;8.27;;;6.03;;
72273;SDS011;60208;48.692;8.948;2022-08-14T00:22:00;6.25;;;4.75;;
72273;SDS011;60208;48.692;8.948;2022-08-14T00:24:26;8.23;;;5.50;;
72273;SDS011;60208;48.692;8.948;2022-08-14T00:26:51;5.40;;;4.90;;
72273;SDS011;60208;48.692;8.948;2022-08-14T00:29:17;7.72;;;4.80;;
72273;SDS011;60208;48.692;8.948;2022-08-14T00:31:43;5.53;;;3.95;;
72273;SDS011;60208;48.692;8.948;2022-08-14T00:34:08;4.40;;;3.53;;
72273;SDS011;60208;48.692;8.948;2022-08-14T00:36:33;3.33;;;3.00;;
72273;SDS011;60208;48.692;8.948;2022-08-14T00:38:59;3.60;;;3.30;;
72273;SDS011;60208;48.692;8.948;2022-08-14T00:41:28;4.10;;;3.30;;
72273;SDS011;60208;48.692;8.948;2022-08-14T00:44:02;3.35;;;3.05;;
72273;SDS011;60208;48.692;8.948;2022-08-14T00:46:27;3.42;;;3.05;;
72273;SDS011;60208;48.692;8.948;2022-08-14T00:48:53;3.38;;;2.90;;
72273;SDS011;60208;48.692;8.948;2022-08-14T00:51:18;3.65;;;3.00;;
72273;SDS011;60208;48.692;8.948;2022-08-14T00:53:45;4.38;;;3.17;;
72273;SDS011;60208;48.692;8.948;2022-08-14T00:56:14;3.22;;;2.75;;
72273;SDS011;60208;48.692;8.948;2022-08-14T00:58:40;2.97;;;2.78;;
72273;SDS011;60208;48.692;8.948;2022-08-14T01:01:07;3.25;;;2.95;;
72273;SDS011;60208;48.692;8.948;2022-08-14T01:03:35;3.13;;;2.83;;
72273;SDS011;60208;48.692;8.948;2022-08-14T01:06:03;3.45;;;2.92;;
72273;SDS011;60208;48.692;8.948;2022-08-14T01:08:30;3.88;;;3.08;;
72273;SDS011;60208;48.692;8.948;2022-08-14T01:10:57;4.00;;;3.25;;
72273;SDS011;60208;48.692;8.948;2022-08-14T01:13:28;4.85;;;3.30;;
72273;SDS011;60208;48.692;8.948;2022-08-14T01:16:04;4.75;;;3.33;;
72273;SDS011;60208;48.692;8.948;2022-08-14T01:18:32;3.78;;;3.47;;
72273;SDS011;60208;48.692;8.948;2022-08-14T01:23:55;3.28;;;2.97;;
72273;SDS011;60208;48.692;8.948;2022-08-14T01:26:22;3.88;;;2.80;;
72273;SDS011;60208;48.692;8.948;2022-08-14T01:28:49;4.55;;;3.00;;
72273;SDS011;60208;48.692;8.948;2022-08-14T01:31:24;4.10;;;2.47;;
72273;SDS011;60208;48.692;8.948;2022-08-14T01:33:53;4.07;;;3.22;;
72273;SDS011;60208;48.692;8.948;2022-08-14T01:36:22;5.30;;;2.83;;
72273;SDS011;60208;48.692;8.948;2022-08-14T01:38:49;5.50;;;3.10;;
72273;SDS011;60208;48.692;8.948;2022-08-14T01:41:17;3.17;;;2.90;;
72273;SDS011;60208;48.692;8.948;2022-08-14T01:43:58;3.92;;;3.03;;
72273;SDS011;60208;48.692;8.948;2022-08-14T01:46:26;3.53;;;3.15;;
72273;SDS011;60208;48.692;8.948;2022-08-14T01:48:54;4.47;;;3.10;;
72273;SDS011;60208;48.692;8.948;2022-08-14T01:51:22;4.80;;;3.45;;
72273;SDS011;60208;48.692;8.948;2022-08-14T01:53:49;3.58;;;3.28;;
72273;SDS011;60208;48.692;8.948;2022-08-14T01:56:18;4.03;;;3.05;;
72273;SDS011;60208;48.692;8.948;2022-08-14T01:58:46;4.15;;;3.45;;
72273;SDS011;60208;48.692;8.948;2022-08-14T02:01:17;3.25;;;2.95;;
72273;SDS011;60208;48.692;8.948;2022-08-14T02:03:43;4.72;;;3.00;;
72273;SDS011;60208;48.692;8.948;2022-08-14T02:06:09;5.13;;;2.97;;
72273;SDS011;60208;48.692;8.948;2022-08-14T02:08:36;4.20;;;3.05;;
72273;SDS011;60208;48.692;8.948;2022-08-14T02:11:03;3.42;;;3.03;;
72273;SDS011;60208;48.692;8.948;2022-08-14T02:16:15;3.08;;;2.78;;
72273;SDS011;60208;48.692;8.948;2022-08-14T02:18:42;3.55;;;3.10;;
72273;SDS011;60208;48.692;8.948;2022-08-14T02:21:07;5.32;;;3.50;;
72273;SDS011;60208;48.692;8.948;2022-08-14T02:23:33;3.67;;;3.10;;
72273;SDS011;60208;48.692;8.948;2022-08-14T02:26:00;3.85;;;3.45;;
72273;SDS011;60208;48.692;8.948;2022-08-14T02:28:38;5.65;;;3.40;;
72273;SDS011;60208;48.692;8.948;2022-08-14T02:31:03;4.88;;;3.50;;
72273;SDS011;60208;48.692;8.948;2022-08-14T02:33:32;3.78;;;3.42;;
72273;SDS011;60208;48.692;8.948;2022-08-14T02:35:59;5.35;;;3.45;;
72273;SDS011;60208;48.692;8.948;2022-08-14T02:38:25;4.88;;;3.47;;
72273;SDS011;60208;48.692;8.948;2022-08-14T02:40:51;3.78;;;3.28;;
72273;SDS011;60208;48.692;8.948;2022-08-14T02:43:16;4.22;;;3.42;;
72273;SDS011;60208;48.692;8.948;2022-08-14T02:45:41;4.55;;;3.50;;
72273;SDS011;60208;48.692;8.948;2022-08-14T02:48:07;3.70;;;3.40;;
72273;SDS011;60208;48.692;8.948;2022-08-14T02:50:33;5.55;;;3.88;;
72273;SDS011;60208;48.692;8.948;2022-08-14T02:53:01;5.70;;;3.53;;
72273;SDS011;60208;48.692;8.948;2022-08-14T02:55:27;3.97;;;3.38;;
72273;SDS011;60208;48.692;8.948;2022-08-14T02:57:56;4.35;;;3.20;;
72273;SDS011;60208;48.692;8.948;2022-08-14T03:00:22;4.32;;;3.50;;
72273;SDS011;60208;48.692;8.948;2022-08-14T03:02:48;4.25;;;3.22;;
72273;SDS011;60208;48.692;8.948;2022-08-14T03:05:14;3.95;;;3.50;;
72273;SDS011;60208;48.692;8.948;2022-08-14T03:07:41;3.75;;;3.45;;
72273;SDS011;60208;48.692;8.948;2022-08-14T03:10:07;4.53;;;3.60;;
72273;SDS011;60208;48.692;8.948;2022-08-14T03:12:34;5.35;;;3.55;;
72273;SDS011;60208;48.692;8.948;2022-08-14T03:15:00;4.38;;;3.97;;
72273;SDS011;60208;48.692;8.948;2022-08-14T03:17:33;4.38;;;3.83;;
72273;SDS011;60208;48.692;8.948;2022-08-14T03:19:59;3.78;;;3.47;;
72273;SDS011;60208;48.692;8.948;2022-08-14T03:22:24;6.30;;;3.72;;
72273;SDS011;60208;48.692;8.948;2022-08-14T03:24:49;3.60;;;3.30;;
72273;SDS011;60208;48.692;8.948;2022-08-14T03:27:15;5.78;;;3.38;;
72273;SDS011;60208;48.692;8.948;2022-08-14T03:29:40;4.05;;;3.10;;
72273;SDS011;60208;48.692;8.948;2022-08-14T03:32:06;5.60;;;3.33;;
72273;SDS011;60208;48.692;8.948;2022-08-14T03:34:31;4.47;;;3.42;;
72273;SDS011;60208;48.692;8.948;2022-08-14T03:36:56;3.92;;;3.58;;
72273;SDS011;60208;48.692;8.948;2022-08-14T03:39:22;5.32;;;3.40;;
72273;SDS011;60208;48.692;8.948;2022-08-14T03:41:48;4.22;;;3.83;;
72273;SDS011;60208;48.692;8.948;2022-08-14T03:44:18;5.82;;;3.63;;
72273;SDS011;60208;48.692;8.948;2022-08-14T03:46:44;9.55;;;3.70;;
72273;SDS011;60208;48.692;8.948;2022-08-14T03:49:09;3.88;;;3.50;;
72273;SDS011;60208;48.692;8.948;2022-08-14T03:51:35;3.72;;;3.42;;
72273;SDS011;60208;48.692;8.948;2022-08-14T03:54:03;3.70;;;3.30;;
72273;SDS011;60208;48.692;8.948;2022-08-14T03:56:32;4.45;;;3.42;;
72273;SDS011;60208;48.692;8.948;2022-08-14T03:59:00;4.97;;;3.50;;
72273;SDS011;60208;48.692;8.948;2022-08-14T04:01:29;4.88;;;3.40;;
72273;SDS011;60208;48.692;8.948;2022-08-14T04:03:55;4.35;;;3.50;;
72273;SDS011;60208;48.692;8.948;2022-08-14T04:06:33;3.85;;;3.55;;
72273;SDS011;60208;48.692;8.948;2022-08-14T04:09:01;4.07;;;3.50;;
72273;SDS011;60208;48.692;8.948;2022-08-14T04:11:27;7.93;;;3.58;;
72273;SDS011;60208;48.692;8.948;2022-08-14T04:13:53;3.58;;;3.28;;
72273;SDS011;60208;48.692;8.948;2022-08-14T04:16:19;4.28;;;3.67;;
72273;SDS011;60208;48.692;8.948;2022-08-14T04:18:48;4.43;;;3.42;;
72273;SDS011;60208;48.692;8.948;2022-08-14T04:21:15;4.80;;;3.45;;
72273;SDS011;60208;48.692;8.948;2022-08-14T04:23:41;6.00;;;3.97;;
72273;SDS011;60208;48.692;8.948;2022-08-14T04:26:08;4.00;;;3.50;;
72273;SDS011;60208;48.692;8.948;2022-08-14T04:28:35;4.35;;;3.63;;
72273;SDS011;60208;48.692;8.948;2022-08-14T04:31:02;4.05;;;3.63;;
72273;SDS011;60208;48.692;8.948;2022-08-14T04:33:28;4.93;;;3.85;;
72273;SDS011;60208;48.692;8.948;2022-08-14T04:35:53;4.32;;;3.67;;
72273;SDS011;60208;48.692;8.948;2022-08-14T04:38:20;5.13;;;3.58;;
72273;SDS011;60208;48.692;8.948;2022-08-14T04:41:04;7.22;;;3.70;;
72273;SDS011;60208;48.692;8.948;2022-08-14T04:43:48;4.05;;;3.75;;
72273;SDS011;60208;48.692;8.948;2022-08-14T04:46:14;4.15;;;3.58;;
72273;SDS011;60208;48.692;8.948;2022-08-14T04:48:42;7.25;;;3.40;;
72273;SDS011;60208;48.692;8.948;2022-08-14T04:51:08;9.50;;;3.25;;
72273;SDS011;60208;48.692;8.948;2022-08-14T04:53:36;3.92;;;3.50;;
72273;SDS011;60208;48.692;8.948;2022-08-14T04:56:08;3.97;;;3.33;;
72273;SDS011;60208;48.692;8.948;2022-08-14T04:58:34;4.35;;;3.33;;
72273;SDS011;60208;48.692;8.948;2022-08-14T05:01:02;5.40;;;3.47;;
72273;SDS011;60208;48.692;8.948;2022-08-14T05:03:32;4.50;;;3.28;;
72273;SDS011;60208;48.692;8.948;2022-08-14T05:06:00;4.22;;;3.10;;
72273;SDS011;60208;48.692;8.948;2022-08-14T05:08:28;3.80;;;3.10;;
72273;SDS011;60208;48.692;8.948;2022-08-14T05:10:55;3.38;;;3.05;;
72273;SDS011;60208;48.692;8.948;2022-08-14T05:13:22;3.70;;;3.40;;
72273;SDS011;60208;48.692;8.948;2022-08-14T05:15:50;4.28;;;3.78;;
72273;SDS011;60208;48.692;8.948;2022-08-14T05:18:17;7.47;;;3.53;;
72273;SDS011;60208;48.692;8.948;2022-08-14T05:20:46;3.78;;;3.35;;
72273;SDS011;60208;48.692;8.948;2022-08-14T05:23:14;5.10;;;3.58;;
72273;SDS011;60208;48.692;8.948;2022-08-14T05:25:42;3.65;;;3.30;;
72273;SDS011;60208;48.692;8.948;2022-08-14T05:28:09;4.05;;;3.50;;
72273;SDS011;60208;48.692;8.948;2022-08-14T05:30:36;4.50;;;3.92;;
72273;SDS011;60208;48.692;8.948;2022-08-14T05:33:03;4.28;;;3.55;;
72273;SDS011;60208;48.692;8.948;2022-08-14T05:35:30;4.93;;;3.70;;
72273;SDS011;60208;48.692;8.948;2022-08-14T05:37:56;4.10;;;3.70;;
72273;SDS011;60208;48.692;8.948;2022-08-14T05:40:23;6.75;;;3.80;;
72273;SDS011;60208;48.692;8.948;2022-08-14T05:42:49;7.53;;;3.90;;
72273;SDS011;60208;48.692;8.948;2022-08-14T05:45:14;4.18;;;3.70;;
72273;SDS011;60208;48.692;8.948;2022-08-14T05:47:41;5.18;;;3.90;;
72273;SDS011;60208;48.692;8.948;2022-08-14T05:50:11;4.30;;;3.67;;
72273;SDS011;60208;48.692;8.948;2022-08-14T05:52:37;3.97;;;3.40;;
72273;SDS011;60208;48.692;8.948;2022-08-14T05:55:03;3.85;;;3.30;;
72273;SDS011;60208;48.692;8.948;2022-08-14T05:57:30;6.40;;;3.30;;
72273;SDS011;60208;48.692;8.948;2022-08-14T05:59:56;4.10;;;3.55;;
72273;SDS011;60208;48.692;8.948;2022-08-14T06:02:21;3.80;;;3.40;;
72273;SDS011;60208;48.692;8.948;2022-08-14T06:04:46;3.95;;;3.58;;
72273;SDS011;60208;48.692;8.948;2022-08-14T06:07:15;4.68;;;3.35;;
72273;SDS011;60208;48.692;8.948;2022-08-14T06:09:41;5.25;;;3.40;;
72273;SDS011;60208;48.692;8.948;2022-08-14T06:12:09;3.92;;;3.17;;
72273;SDS011;60208;48.692;8.948;2022-08-14T06:14:35;4.00;;;3.60;;
72273;SDS011;60208;48.692;8.948;2022-08-14T06:17:01;17.77;;;3.70;;
72273;SDS011;60208;48.692;8.948;2022-08-14T06:19:27;5.25;;;3.35;;
72273;SDS011;60208;48.692;8.948;2022-08-14T06:21:52;3.78;;;3.35;;
72273;SDS011;60208;48.692;8.948;2022-08-14T06:24:17;3.50;;;3.20;;
72273;SDS011;60208;48.692;8.948;2022-08-14T06:26:44;3.83;;;3.25;;
72273;SDS011;60208;48.692;8.948;2022-08-14T06:29:10;3.92;;;3.10;;
72273;SDS011;60208;48.692;8.948;2022-08-14T06:31:36;5.25;;;3.28;;
72273;SDS011;60208;48.692;8.948;2022-08-14T06:34:01;3.50;;;3.20;;
72273;SDS011;60208;48.692;8.948;2022-08-14T06:36:26;3.88;;;3.40;;
72273;SDS011;60208;48.692;8.948;2022-08-14T06:38:52;3.50;;;3.20;;
72273;SDS011;60208;48.692;8.948;2022-08-14T06:41:18;6.07;;;3.17;;
72273;SDS011;60208;48.692;8.948;2022-08-14T06:43:43;3.40;;;3.10;;
72273;SDS011;60208;48.692;8.948;2022-08-14T06:46:08;4.03;;;3.08;;
72273;SDS011;60208;48.692;8.948;2022-08-14T06:48:34;5.22;;;3.10;;
72273;SDS011;60208;48.692;8.948;2022-08-14T06:50:59;3.30;;;3.00;;
72273;SDS011;60208;48.692;8.948;2022-08-14T06:53:24;2.78;;;2.58;;
72273;SDS011;60208;48.692;8.948;2022-08-14T06:55:50;3.05;;;2.72;;
72273;SDS011;60208;48.692;8.948;2022-08-14T06:58:16;3.45;;;2.67;;
72273;SDS011;60208;48.692;8.948;2022-08-14T07:00:43;3.88;;;2.65;;
72273;SDS011;60208;48.692;8.948;2022-08-14T07:03:29;4.90;;;2.83;;
72273;SDS011;60208;48.692;8.948;2022-08-14T07:06:13;2.70;;;2.50;;
72273;SDS011;60208;48.692;8.948;2022-08-14T07:08:39;2.90;;;2.60;;
72273;SDS011;60208;48.692;8.948;2022-08-14T07:11:04;3.33;;;2.67;;
72273;SDS011;60208;48.692;8.948;2022-08-14T07:13:30;2.47;;;2.28;;
72273;SDS011;60208;48.692;8.948;2022-08-14T07:15:55;3.85;;;2.70;;
72273;SDS011;60208;48.692;8.948;2022-08-14T07:18:22;4.35;;;2.72;;
72273;SDS011;60208;48.692;8.948;2022-08-14T07:20:48;3.05;;;2.33;;
72273;SDS011;60208;48.692;8.948;2022-08-14T07:23:14;3.97;;;2.47;;
72273;SDS011;60208;48.692;8.948;2022-08-14T07:25:40;2.55;;;2.33;;
72273;SDS011;60208;48.692;8.948;2022-08-14T07:28:08;2.53;;;2.30;;
72273;SDS011;60208;48.692;8.948;2022-08-14T07:30:34;2.95;;;2.30;;
72273;SDS011;60208;48.692;8.948;2022-08-14T07:33:00;2.95;;;2.40;;
72273;SDS011;60208;48.692;8.948;2022-08-14T07:35:25;2.45;;;2.25;;
72273;SDS011;60208;48.692;8.948;2022-08-14T07:37:51;5.03;;;2.30;;
72273;SDS011;60208;48.692;8.948;2022-08-14T07:40:16;1.98;;;1.88;;
72273;SDS011;60208;48.692;8.948;2022-08-14T07:42:42;2.45;;;2.25;;
72273;SDS011;60208;48.692;8.948;2022-08-14T07:45:07;4.70;;;2.47;;
72273;SDS011;60208;48.692;8.948;2022-08-14T07:47:37;3.22;;;1.92;;
72273;SDS011;60208;48.692;8.948;2022-08-14T07:50:04;3.45;;;2.00;;
72273;SDS011;60208;48.692;8.948;2022-08-14T07:52:36;2.30;;;2.10;;
72273;SDS011;60208;48.692;8.948;2022-08-14T07:55:02;6.30;;;2.08;;
72273;SDS011;60208;48.692;8.948;2022-08-14T07:57:28;4.18;;;2.17;;
72273;SDS011;60208;48.692;8.948;2022-08-14T07:59:54;3.35;;;2.00;;
72273;SDS011;60208;48.692;8.948;2022-08-14T08:02:19;2.40;;;2.20;;
72273;SDS011;60208;48.692;8.948;2022-08-14T08:04:46;2.25;;;2.05;;
72273;SDS011;60208;48.692;8.948;2022-08-14T08:07:13;1.52;;;1.42;;
72273;SDS011;60208;48.692;8.948;2022-08-14T08:09:43;1.60;;;1.50;;
72273;SDS011;60208;48.692;8.948;2022-08-14T08:12:11;1.70;;;1.60;;
72273;SDS011;60208;48.692;8.948;2022-08-14T08:14:37;1.65;;;1.52;;
72273;SDS011;60208;48.692;8.948;2022-08-14T08:17:04;2.85;;;1.90;;
72273;SDS011;60208;48.692;8.948;2022-08-14T08:19:30;2.20;;;2.00;;
72273;SDS011;60208;48.692;8.948;2022-08-14T08:21:58;3.15;;;2.38;;
72273;SDS011;60208;48.692;8.948;2022-08-14T08:24:26;2.00;;;1.80;;
72273;SDS011;60208;48.692;8.948;2022-08-14T08:26:51;2.10;;;1.90;;
72273;SDS011;60208;48.692;8.948;2022-08-14T08:29:20;1.73;;;1.63;;
72273;SDS011;60208;48.692;8.948;2022-08-14T08:31:47;4.53;;;1.80;;
72273;SDS011;60208;48.692;8.948;2022-08-14T08:34:14;1.77;;;1.52;;
72273;SDS011;60208;48.692;8.948;2022-08-14T08:36:40;2.08;;;1.65;;
72273;SDS011;60208;48.692;8.948;2022-08-14T08:39:06;2.28;;;1.98;;
72273;SDS011;60208;48.692;8.948;2022-08-14T08:41:41;2.60;;;2.40;;
72273;SDS011;60208;48.692;8.948;2022-08-14T08:44:08;1.77;;;1.67;;
72273;SDS011;60208;48.692;8.948;2022-08-14T08:46:33;2.72;;;1.70;;
72273;SDS011;60208;48.692;8.948;2022-08-14T08:48:58;1.65;;;1.55;;
72273;SDS011;60208;48.692;8.948;2022-08-14T08:51:25;2.33;;;1.60;;
72273;SDS011;60208;48.692;8.948;2022-08-14T08:58:58;1.70;;;1.60;;
72273;SDS011;60208;48.692;8.948;2022-08-14T09:01:28;1.92;;;1.75;;
72273;SDS011;60208;48.692;8.948;2022-08-14T09:04:04;2.17;;;1.77;;
72273;SDS011;60208;48.692;8.948;2022-08-14T09:06:29;1.90;;;1.80;;
72273;SDS011;60208;48.692;8.948;2022-08-14T09:08:55;1.85;;;1.55;;
72273;SDS011;60208;48.692;8.948;2022-08-14T09:11:20;2.40;;;1.70;;
72273;SDS011;60208;48.692;8.948;2022-08-14T09:13:51;2.95;;;1.88;;
72273;SDS011;60208;48.692;8.948;2022-08-14T09:16:21;1.73;;;1.63;;
72273;SDS011;60208;48.692;8.948;2022-08-14T09:18:48;2.17;;;1.98;;
72273;SDS011;60208;48.692;8.948;2022-08-14T09:21:14;2.97;;;2.00;;
72273;SDS011;60208;48.692;8.948;2022-08-14T09:23:40;3.58;;;1.92;;
72273;SDS011;60208;48.692;8.948;2022-08-14T09:26:05;2.00;;;1.90;;
72273;SDS011;60208;48.692;8.948;2022-08-14T09:28:31;1.80;;;1.70;;
72273;SDS011;60208;48.692;8.948;2022-08-14T09:30:56;2.50;;;1.77;;
72273;SDS011;60208;48.692;8.948;2022-08-14T09:46:53;2.10;;;1.90;;
72273;SDS011;60208;48.692;8.948;2022-08-14T09:49:28;1.80;;;1.70;;
72273;SDS011;60208;48.692;8.948;2022-08-14T09:52:05;3.53;;;1.80;;
72273;SDS011;60208;48.692;8.948;2022-08-14T09:54:36;2.85;;;1.90;;
72273;SDS011;60208;48.692;8.948;2022-08-14T09:57:02;2.97;;;1.73;;
72273;SDS011;60208;48.692;8.948;2022-08-14T09:59:38;2.72;;;1.80;;
72273;SDS011;60208;48.692;8.948;2022-08-14T10:02:15;1.98;;;1.80;;
72273;SDS011;60208;48.692;8.948;2022-08-14T10:04:45;3.65;;;1.67;;
72273;SDS011;60208;48.692;8.948;2022-08-14T10:07:11;1.90;;;1.65;;
72273;SDS011;60208;48.692;8.948;2022-08-14T10:09:47;2.95;;;1.70;;
72273;SDS011;60208;48.692;8.948;2022-08-14T10:12:13;1.60;;;1.50;;
72273;SDS011;60208;48.692;8.948;2022-08-14T10:14:38;3.50;;;1.70;;
72273;SDS011;60208;48.692;8.948;2022-08-14T10:17:05;1.80;;;1.70;;
72273;SDS011;60208;48.692;8.948;2022-08-14T10:19:31;3.15;;;1.98;;
72273;SDS011;60208;48.692;8.948;2022-08-14T10:22:01;1.88;;;1.70;;
72273;SDS011;60208;48.692;8.948;2022-08-14T10:24:39;1.85;;;1.50;;
72273;SDS011;60208;48.692;8.948;2022-08-14T10:27:16;3.67;;;1.67;;
72273;SDS011;60208;48.692;8.948;2022-08-14T10:29:46;1.90;;;1.50;;
72273;SDS011;60208;48.692;8.948;2022-08-14T10:32:16;5.75;;;1.50;;
72273;SDS011;60208;48.692;8.948;2022-08-14T10:34:42;1.52;;;1.42;;
72273;SDS011;60208;48.692;8.948;2022-08-14T10:39:35;1.83;;;1.50;;
72273;SDS011;60208;48.692;8.948;2022-08-14T10:42:08;3.05;;;1.50;;
72273;SDS011;60208;48.692;8.948;2022-08-14T10:44:45;1.95;;;1.50;;
72273;SDS011;60208;48.692;8.948;2022-08-14T10:47:13;3.60;;;1.58;;
72273;SDS011;60208;48.692;8.948;2022-08-14T11:00:13;1.60;;;1.30;;
72273;SDS011;60208;48.692;8.948;2022-08-14T11:02:40;2.40;;;1.40;;
72273;SDS011;60208;48.692;8.948;2022-08-14T11:05:13;2.90;;;1.42;;
72273;SDS011;60208;48.692;8.948;2022-08-14T11:10:38;1.60;;;1.38;;
72273;SDS011;60208;48.692;8.948;2022-08-14T11:13:05;4.20;;;1.33;;
72273;SDS011;60208;48.692;8.948;2022-08-14T11:15:31;1.30;;;1.20;;
72273;SDS011;60208;48.692;8.948;2022-08-14T11:17:57;2.25;;;1.02;;
72273;SDS011;60208;48.692;8.948;2022-08-14T11:20:23;1.77;;;1.00;;
72273;SDS011;60208;48.692;8.948;2022-08-14T11:22:51;1.42;;;1.20;;
72273;SDS011;60208;48.692;8.948;2022-08-14T11:25:18;1.45;;;1.20;;
72273;SDS011;60208;48.692;8.948;2022-08-14T11:27:47;1.20;;;1.10;;
72273;SDS011;60208;48.692;8.948;2022-08-14T11:30:14;1.15;;;1.00;;
72273;SDS011;60208;48.692;8.948;2022-08-14T11:32:44;1.35;;;1.10;;
72273;SDS011;60208;48.692;8.948;2022-08-14T11:35:20;1.30;;;1.20;;
72273;SDS011;60208;48.692;8.948;2022-08-14T11:37:57;2.15;;;1.02;;
72273;SDS011;60208;48.692;8.948;2022-08-14T11:40:27;1.33;;;1.02;;
72273;SDS011;60208;48.692;8.948;2022-08-14T11:42:55;1.48;;;1.10;;
72273;SDS011;60208;48.692;8.948;2022-08-14T11:45:22;1.45;;;1.00;;
72273;SDS011;60208;48.692;8.948;2022-08-14T11:47:48;1.02;;;1.02;;
72273;SDS011;60208;48.692;8.948;2022-08-14T11:50:19;3.50;;;0.98;;
72273;SDS011;60208;48.692;8.948;2022-08-14T11:52:48;1.38;;;1.02;;
72273;SDS011;60208;48.692;8.948;2022-08-14T11:55:14;1.70;;;1.48;;
72273;SDS011;60208;48.692;8.948;2022-08-14T11:57:40;0.80;;;0.80;;
72273;SDS011;60208;48.692;8.948;2022-08-14T12:00:10;0.80;;;0.80;;
72273;SDS011;60208;48.692;8.948;2022-08-14T12:02:47;4.73;;;1.30;;
72273;SDS011;60208;48.692;8.948;2022-08-14T12:05:13;1.00;;;0.90;;
72273;SDS011;60208;48.692;8.948;2022-08-14T12:07:48;1.57;;;0.87;;
72273;SDS011;60208;48.692;8.948;2022-08-14T12:10:16;0.80;;;0.80;;
72273;SDS011;60208;48.692;8.948;2022-08-14T12:12:43;2.75;;;1.00;;
72273;SDS011;60208;48.692;8.948;2022-08-14T12:15:08;1.05;;;0.75;;
72273;SDS011;60208;48.692;8.948;2022-08-14T12:17:44;0.85;;;0.80;;
72273;SDS011;60208;48.692;8.948;2022-08-14T12:20:12;1.15;;;0.80;;
72273;SDS011;60208;48.692;8.948;2022-08-14T12:22:39;0.80;;;0.80;;
72273;SDS011;60208;48.692;8.948;2022-08-14T12:25:11;1.27;;;0.77;;
72273;SDS011;60208;48.692;8.948;2022-08-14T12:30:08;0.88;;;0.75;;
72273;SDS011;60208;48.692;8.948;2022-08-14T12:32:38;1.50;;;1.00;;
72273;SDS011;60208;48.692;8.948;2022-08-14T12:35:04;1.67;;;0.82;;
72273;SDS011;60208;48.692;8.948;2022-08-14T12:37:30;1.88;;;0.80;;
72273;SDS011;60208;48.692;8.948;2022-08-14T12:40:07;1.15;;;0.80;;
72273;SDS011;60208;48.692;8.948;2022-08-14T12:42:34;0.88;;;0.75;;
72273;SDS011;60208;48.692;8.948;2022-08-14T12:44:59;0.85;;;0.80;;
72273;SDS011;60208;48.692;8.948;2022-08-14T12:47:25;2.63;;;0.70;;
72273;SDS011;60208;48.692;8.948;2022-08-14T12:49:55;3.45;;;0.70;;
72273;SDS011;60208;48.692;8.948;2022-08-14T12:55:05;1.65;;;0.70;;
72273;SDS011;60208;48.692;8.948;2022-08-14T13:00:29;0.85;;;0.63;;
72273;SDS011;60208;48.692;8.948;2022-08-14T13:02:54;0.50;;;0.50;;
72273;SDS011;60208;48.692;8.948;2022-08-14T13:05:21;0.95;;;0.50;;
72273;SDS011;60208;48.692;8.948;2022-08-14T13:07:58;0.60;;;0.60;;
72273;SDS011;60208;48.692;8.948;2022-08-14T13:10:24;0.80;;;0.75;;
72273;SDS011;60208;48.692;8.948;2022-08-14T13:12:50;2.03;;;0.50;;
72273;SDS011;60208;48.692;8.948;2022-08-14T13:15:19;0.60;;;0.60;;
72273;SDS011;60208;48.692;8.948;2022-08-14T13:17:49;1.38;;;0.65;;
72273;SDS011;60208;48.692;8.948;2022-08-14T13:22:43;1.55;;;0.73;;
72273;SDS011;60208;48.692;8.948;2022-08-14T13:25:10;0.60;;;0.60;;
72273;SDS011;60208;48.692;8.948;2022-08-14T13:27:37;0.70;;;0.70;;
72273;SDS011;60208;48.692;8.948;2022-08-14T13:30:06;1.07;;;0.80;;
72273;SDS011;60208;48.692;8.948;2022-08-14T13:32:33;0.68;;;0.60;;
72273;SDS011;60208;48.692;8.948;2022-08-14T13:35:00;0.80;;;0.80;;
72273;SDS011;60208;48.692;8.948;2022-08-14T13:37:26;0.85;;;0.70;;
72273;SDS011;60208;48.692;8.948;2022-08-14T13:39:53;0.88;;;0.80;;
72273;SDS011;60208;48.692;8.948;2022-08-14T13:42:56;0.80;;;0.80;;
72273;SDS011;60208;48.692;8.948;2022-08-14T13:45:22;0.77;;;0.77;;
72273;SDS011;60208;48.692;8.948;2022-08-14T13:47:48;0.93;;;0.70;;
72273;SDS011;60208;48.692;8.948;2022-08-14T13:50:15;0.90;;;0.90;;
72273;SDS011;60208;48.692;8.948;2022-08-14T13:52:45;0.65;;;0.60;;
72273;SDS011;60208;48.692;8.948;2022-08-14T13:55:27;0.50;;;0.50;;
72273;SDS011;60208;48.692;8.948;2022-08-14T13:57:55;0.70;;;0.70;;
72273;SDS011;60208;48.692;8.948;2022-08-14T14:00:23;0.90;;;0.70;;
72273;SDS011;60208;48.692;8.948;2022-08-14T14:02:48;0.88;;;0.85;;
72273;SDS011;60208;48.692;8.948;2022-08-14T14:05:16;1.73;;;0.80;;
72273;SDS011;60208;48.692;8.948;2022-08-14T14:07:47;1.15;;;0.77;;
72273;SDS011;60208;48.692;8.948;2022-08-14T14:12:40;0.60;;;0.60;;
72273;SDS011;60208;48.692;8.948;2022-08-14T14:15:07;0.95;;;0.68;;
72273;SDS011;60208;48.692;8.948;2022-08-14T14:17:38;0.70;;;0.70;;
72273;SDS011;60208;48.692;8.948;2022-08-14T14:20:04;1.00;;;0.90;;
72273;SDS011;60208;48.692;8.948;2022-08-14T14:22:32;1.02;;;0.60;;
72273;SDS011;60208;48.692;8.948;2022-08-14T14:24:57;0.80;;;0.80;;
72273;SDS011;60208;48.692;8.948;2022-08-14T14:27:26;1.13;;;0.90;;
72273;SDS011;60208;48.692;8.948;2022-08-14T14:29:52;0.90;;;0.90;;
72273;SDS011;60208;48.692;8.948;2022-08-14T14:32:20;1.27;;;1.00;;
72273;SDS011;60208;48.692;8.948;2022-08-14T14:34:52;0.90;;;0.90;;
72273;SDS011;60208;48.692;8.948;2022-08-14T14:37:17;0.90;;;0.90;;
72273;SDS011;60208;48.692;8.948;2022-08-14T14:39:43;0.90;;;0.90;;
72273;SDS011;60208;48.692;8.948;2022-08-14T14:42:10;2.40;;;1.25;;
72273;SDS011;60208;48.692;8.948;2022-08-14T14:44:45;2.63;;;1.17;;
72273;SDS011;60208;48.692;8.948;2022-08-14T14:47:18;1.38;;;1.25;;
72273;SDS011;60208;48.692;8.948;2022-08-14T14:49:45;1.30;;;1.20;;
72273;SDS011;60208;48.692;8.948;2022-08-14T14:52:13;1.13;;;1.10;;
72273;SDS011;60208;48.692;8.948;2022-08-14T14:54:39;1.02;;;1.00;;
72273;SDS011;60208;48.692;8.948;2022-08-14T14:57:05;1.20;;;1.20;;
72273;SDS011;60208;48.692;8.948;2022-08-14T14:59:32;1.67;;;1.05;;
72273;SDS011;60208;48.692;8.948;2022-08-14T15:01:59;1.73;;;1.33;;
72273;SDS011;60208;48.692;8.948;2022-08-14T15:04:34;2.05;;;1.30;;
72273;SDS011;60208;48.692;8.948;2022-08-14T15:07:01;1.50;;;1.40;;
72273;SDS011;60208;48.692;8.948;2022-08-14T15:09:27;1.48;;;1.38;;
72273;SDS011;60208;48.692;8.948;2022-08-14T15:11:52;1.33;;;1.25;;
72273;SDS011;60208;48.692;8.948;2022-08-14T15:14:18;1.20;;;1.20;;
72273;SDS011;60208;48.692;8.948;2022-08-14T15:16:45;1.13;;;1.13;;
72273;SDS011;60208;48.692;8.948;2022-08-14T15:19:11;1.15;;;1.13;;
72273;SDS011;60208;48.692;8.948;2022-08-14T15:21:36;1.40;;;1.30;;
72273;SDS011;60208;48.692;8.948;2022-08-14T15:24:02;1.40;;;1.30;;
72273;SDS011;60208;48.692;8.948;2022-08-14T15:26:28;2.92;;;1.50;;
72273;SDS011;60208;48.692;8.948;2022-08-14T15:28:53;1.40;;;1.30;;
72273;SDS011;60208;48.692;8.948;2022-08-14T15:31:19;2.17;;;1.60;;
72273;SDS011;60208;48.692;8.948;2022-08-14T15:33:45;2.03;;;1.53;;
72273;SDS011;60208;48.692;8.948;2022-08-14T15:36:29;2.65;;;1.67;;
72273;SDS011;60208;48.692;8.948;2022-08-14T15:38:55;1.80;;;1.70;;
72273;SDS011;60208;48.692;8.948;2022-08-14T15:41:21;2.88;;;1.55;;
72273;SDS011;60208;48.692;8.948;2022-08-14T15:43:46;2.95;;;1.70;;